sensor_id;sensor_type;location;lat;lon;timestamp;P1;durP1;ratioP1;P2;durP2;ratioP2
51883;SDS011;37915;53.254;6.598;2023-03-20T00:48:26;8.32;;;4.03;;
51883;SDS011;37915;53.254;6.598;2023-03-20T01:43:43;10.55;;;4.28;;
51883;SDS011;37915;53.254;6.598;2023-03-20T02:51:35;10.90;;;6.05;;
51883;SDS011;37915;53.254;6.598;2023-03-20T03:22:16;14.90;;;6.68;;
51883;SDS011;37915;53.254;6.598;2023-03-20T03:42:32;15.32;;;6.10;;
51883;SDS011;37915;53.254;6.598;2023-03-20T03:56:14;15.18;;;6.38;;
51883;SDS011;37915;53.254;6.598;2023-03-20T04:10:07;14.07;;;6.78;;
51883;SDS011;37915;53.254;6.598;2023-03-20T04:23:46;9.18;;;5.35;;
51883;SDS011;37915;53.254;6.598;2023-03-20T04:27:13;13.30;;;6.85;;
51883;SDS011;37915;53.254;6.598;2023-03-20T05:57:03;15.20;;;6.10;;
51883;SDS011;37915;53.254;6.598;2023-03-20T06:38:14;17.63;;;7.03;;
51883;SDS011;37915;53.254;6.598;2023-03-20T06:45:18;14.70;;;7.63;;
51883;SDS011;37915;53.254;6.598;2023-03-20T07:02:23;14.43;;;7.55;;
51883;SDS011;37915;53.254;6.598;2023-03-20T07:21:50;12.02;;;7.30;;
51883;SDS011;37915;53.254;6.598;2023-03-20T07:24:59;18.02;;;8.40;;
51883;SDS011;37915;53.254;6.598;2023-03-20T07:31:48;18.65;;;7.18;;
51883;SDS011;37915;53.254;6.598;2023-03-20T08:28:44;19.02;;;7.95;;
51883;SDS011;37915;53.254;6.598;2023-03-20T09:12:01;14.02;;;8.02;;
51883;SDS011;37915;53.254;6.598;2023-03-20T09:49:46;17.73;;;8.23;;
51883;SDS011;37915;53.254;6.598;2023-03-20T11:09:22;15.05;;;6.72;;
51883;SDS011;37915;53.254;6.598;2023-03-20T11:59:20;12.45;;;5.50;;
51883;SDS011;37915;53.254;6.598;2023-03-20T12:29:52;10.30;;;4.43;;
51883;SDS011;37915;53.254;6.598;2023-03-20T12:32:40;12.43;;;4.75;;
51883;SDS011;37915;53.254;6.598;2023-03-20T12:39:27;11.38;;;4.10;;
51883;SDS011;37915;53.254;6.598;2023-03-20T13:08:43;7.25;;;3.50;;
51883;SDS011;37915;53.254;6.598;2023-03-20T13:17:47;6.63;;;3.58;;
51883;SDS011;37915;53.254;6.598;2023-03-20T13:20:01;8.88;;;4.68;;
51883;SDS011;37915;53.254;6.598;2023-03-20T13:36:29;6.50;;;3.90;;
51883;SDS011;37915;53.254;6.598;2023-03-20T13:39:13;7.43;;;3.45;;
51883;SDS011;37915;53.254;6.598;2023-03-20T13:41:45;5.68;;;3.30;;
51883;SDS011;37915;53.254;6.598;2023-03-20T13:44:13;8.88;;;4.28;;
51883;SDS011;37915;53.254;6.598;2023-03-20T13:46:48;9.60;;;4.57;;
51883;SDS011;37915;53.254;6.598;2023-03-20T13:49:52;7.25;;;4.10;;
51883;SDS011;37915;53.254;6.598;2023-03-20T13:52:20;7.72;;;4.70;;
51883;SDS011;37915;53.254;6.598;2023-03-20T14:03:47;8.07;;;3.80;;
51883;SDS011;37915;53.254;6.598;2023-03-20T14:08:53;6.32;;;3.72;;
51883;SDS011;37915;53.254;6.598;2023-03-20T14:13:55;7.25;;;4.50;;
51883;SDS011;37915;53.254;6.598;2023-03-20T14:16:22;8.02;;;4.43;;
51883;SDS011;37915;53.254;6.598;2023-03-20T14:19:15;6.60;;;4.03;;
51883;SDS011;37915;53.254;6.598;2023-03-20T14:21:45;7.40;;;4.50;;
51883;SDS011;37915;53.254;6.598;2023-03-20T14:24:13;11.82;;;4.97;;
51883;SDS011;37915;53.254;6.598;2023-03-20T14:26:41;6.85;;;4.75;;
51883;SDS011;37915;53.254;6.598;2023-03-20T14:31:39;7.07;;;3.47;;
51883;SDS011;37915;53.254;6.598;2023-03-20T14:36:58;7.57;;;4.57;;
51883;SDS011;37915;53.254;6.598;2023-03-20T14:58:04;6.50;;;4.75;;
51883;SDS011;37915;53.254;6.598;2023-03-20T15:00:50;7.45;;;4.85;;
51883;SDS011;37915;53.254;6.598;2023-03-20T15:03:16;9.00;;;4.30;;
51883;SDS011;37915;53.254;6.598;2023-03-20T15:05:43;7.82;;;5.45;;
51883;SDS011;37915;53.254;6.598;2023-03-20T15:08:17;8.45;;;6.10;;
51883;SDS011;37915;53.254;6.598;2023-03-20T15:10:49;7.45;;;4.88;;
51883;SDS011;37915;53.254;6.598;2023-03-20T15:13:19;9.38;;;6.03;;
51883;SDS011;37915;53.254;6.598;2023-03-20T15:15:58;8.68;;;6.28;;
51883;SDS011;37915;53.254;6.598;2023-03-20T15:18:42;9.25;;;6.80;;
51883;SDS011;37915;53.254;6.598;2023-03-20T15:21:14;9.10;;;6.70;;
51883;SDS011;37915;53.254;6.598;2023-03-20T15:24:00;10.27;;;7.13;;
51883;SDS011;37915;53.254;6.598;2023-03-20T15:26:26;10.88;;;6.97;;
51883;SDS011;37915;53.254;6.598;2023-03-20T15:29:07;9.15;;;7.18;;
51883;SDS011;37915;53.254;6.598;2023-03-20T15:31:37;11.65;;;7.28;;
51883;SDS011;37915;53.254;6.598;2023-03-20T15:34:08;9.77;;;7.25;;
51883;SDS011;37915;53.254;6.598;2023-03-20T15:36:43;10.32;;;7.57;;
51883;SDS011;37915;53.254;6.598;2023-03-20T15:41:49;9.95;;;7.53;;
51883;SDS011;37915;53.254;6.598;2023-03-20T15:44:22;11.15;;;8.18;;
51883;SDS011;37915;53.254;6.598;2023-03-20T15:47:28;9.73;;;7.35;;
51883;SDS011;37915;53.254;6.598;2023-03-20T15:50:00;11.80;;;8.15;;
51883;SDS011;37915;53.254;6.598;2023-03-20T15:52:32;8.98;;;6.82;;
51883;SDS011;37915;53.254;6.598;2023-03-20T15:55:20;11.35;;;8.80;;
51883;SDS011;37915;53.254;6.598;2023-03-20T15:57:47;13.63;;;9.13;;
51883;SDS011;37915;53.254;6.598;2023-03-20T16:00:16;11.20;;;8.57;;
51883;SDS011;37915;53.254;6.598;2023-03-20T16:02:48;10.98;;;8.23;;
51883;SDS011;37915;53.254;6.598;2023-03-20T16:05:23;12.00;;;9.05;;
51883;SDS011;37915;53.254;6.598;2023-03-20T16:07:51;13.45;;;8.85;;
51883;SDS011;37915;53.254;6.598;2023-03-20T16:10:22;11.13;;;8.23;;
51883;SDS011;37915;53.254;6.598;2023-03-20T16:12:59;10.93;;;8.48;;
51883;SDS011;37915;53.254;6.598;2023-03-20T16:15:30;12.63;;;8.65;;
51883;SDS011;37915;53.254;6.598;2023-03-20T16:18:01;12.77;;;9.02;;
51883;SDS011;37915;53.254;6.598;2023-03-20T16:20:29;12.13;;;8.95;;
51883;SDS011;37915;53.254;6.598;2023-03-20T16:23:07;11.88;;;7.82;;
51883;SDS011;37915;53.254;6.598;2023-03-20T16:25:36;12.73;;;8.20;;
51883;SDS011;37915;53.254;6.598;2023-03-20T16:28:02;10.68;;;8.45;;
51883;SDS011;37915;53.254;6.598;2023-03-20T16:30:37;17.45;;;8.88;;
51883;SDS011;37915;53.254;6.598;2023-03-20T16:33:10;12.50;;;8.82;;
51883;SDS011;37915;53.254;6.598;2023-03-20T16:35:48;11.63;;;8.27;;
51883;SDS011;37915;53.254;6.598;2023-03-20T16:38:24;12.52;;;7.40;;
51883;SDS011;37915;53.254;6.598;2023-03-20T16:48:33;11.60;;;7.85;;
51883;SDS011;37915;53.254;6.598;2023-03-20T16:51:50;12.32;;;7.85;;
51883;SDS011;37915;53.254;6.598;2023-03-20T16:54:38;11.93;;;8.15;;
51883;SDS011;37915;53.254;6.598;2023-03-20T17:01:22;10.93;;;7.57;;
51883;SDS011;37915;53.254;6.598;2023-03-20T17:03:54;9.60;;;7.38;;
51883;SDS011;37915;53.254;6.598;2023-03-20T17:08:49;13.73;;;7.53;;
51883;SDS011;37915;53.254;6.598;2023-03-20T17:13:59;11.77;;;7.97;;
51883;SDS011;37915;53.254;6.598;2023-03-20T17:16:25;10.52;;;7.18;;
51883;SDS011;37915;53.254;6.598;2023-03-20T17:19:04;12.68;;;8.20;;
51883;SDS011;37915;53.254;6.598;2023-03-20T17:21:34;10.85;;;7.32;;
51883;SDS011;37915;53.254;6.598;2023-03-20T17:24:00;11.23;;;8.30;;
51883;SDS011;37915;53.254;6.598;2023-03-20T17:26:26;9.43;;;6.90;;
51883;SDS011;37915;53.254;6.598;2023-03-20T17:28:52;10.10;;;7.18;;
51883;SDS011;37915;53.254;6.598;2023-03-20T17:31:18;10.15;;;6.90;;
51883;SDS011;37915;53.254;6.598;2023-03-20T17:33:44;10.40;;;7.47;;
51883;SDS011;37915;53.254;6.598;2023-03-20T17:36:13;10.27;;;7.35;;
51883;SDS011;37915;53.254;6.598;2023-03-20T17:38:45;9.43;;;6.95;;
51883;SDS011;37915;53.254;6.598;2023-03-20T17:41:15;10.52;;;7.72;;
51883;SDS011;37915;53.254;6.598;2023-03-20T17:43:42;10.55;;;7.80;;
51883;SDS011;37915;53.254;6.598;2023-03-20T17:46:11;11.18;;;7.05;;
51883;SDS011;37915;53.254;6.598;2023-03-20T17:48:45;10.35;;;7.47;;
51883;SDS011;37915;53.254;6.598;2023-03-20T17:51:12;9.88;;;7.47;;
51883;SDS011;37915;53.254;6.598;2023-03-20T17:53:38;10.18;;;7.70;;
51883;SDS011;37915;53.254;6.598;2023-03-20T17:56:08;10.77;;;7.20;;
51883;SDS011;37915;53.254;6.598;2023-03-20T17:58:36;10.18;;;7.65;;
51883;SDS011;37915;53.254;6.598;2023-03-20T18:01:03;10.65;;;7.70;;
51883;SDS011;37915;53.254;6.598;2023-03-20T18:03:30;9.68;;;7.03;;
51883;SDS011;37915;53.254;6.598;2023-03-20T18:05:57;11.88;;;8.88;;
51883;SDS011;37915;53.254;6.598;2023-03-20T18:08:23;10.98;;;8.18;;
51883;SDS011;37915;53.254;6.598;2023-03-20T18:10:49;9.30;;;6.40;;
51883;SDS011;37915;53.254;6.598;2023-03-20T18:13:17;12.15;;;7.40;;
51883;SDS011;37915;53.254;6.598;2023-03-20T18:15:45;8.80;;;5.72;;
51883;SDS011;37915;53.254;6.598;2023-03-20T18:18:13;11.25;;;7.93;;
51883;SDS011;37915;53.254;6.598;2023-03-20T18:20:39;11.70;;;7.18;;
51883;SDS011;37915;53.254;6.598;2023-03-20T18:23:06;12.68;;;8.32;;
51883;SDS011;37915;53.254;6.598;2023-03-20T18:25:33;12.70;;;8.65;;
51883;SDS011;37915;53.254;6.598;2023-03-20T18:28:00;10.65;;;7.57;;
51883;SDS011;37915;53.254;6.598;2023-03-20T18:30:37;9.55;;;6.90;;
51883;SDS011;37915;53.254;6.598;2023-03-20T18:33:05;13.70;;;9.68;;
51883;SDS011;37915;53.254;6.598;2023-03-20T18:35:32;12.52;;;8.95;;
51883;SDS011;37915;53.254;6.598;2023-03-20T18:37:58;12.35;;;8.63;;
51883;SDS011;37915;53.254;6.598;2023-03-20T18:40:28;13.00;;;9.38;;
51883;SDS011;37915;53.254;6.598;2023-03-20T18:42:56;14.20;;;9.80;;
51883;SDS011;37915;53.254;6.598;2023-03-20T18:45:23;12.50;;;8.80;;
51883;SDS011;37915;53.254;6.598;2023-03-20T18:47:50;14.25;;;9.68;;
51883;SDS011;37915;53.254;6.598;2023-03-20T18:50:21;12.98;;;8.95;;
51883;SDS011;37915;53.254;6.598;2023-03-20T18:52:53;12.52;;;9.45;;
51883;SDS011;37915;53.254;6.598;2023-03-20T18:55:20;12.85;;;9.02;;
51883;SDS011;37915;53.254;6.598;2023-03-20T18:57:47;14.65;;;9.88;;
51883;SDS011;37915;53.254;6.598;2023-03-20T19:02:59;13.25;;;9.85;;
51883;SDS011;37915;53.254;6.598;2023-03-20T19:05:26;15.45;;;11.30;;
51883;SDS011;37915;53.254;6.598;2023-03-20T19:07:53;12.52;;;8.68;;
51883;SDS011;37915;53.254;6.598;2023-03-20T19:12:52;15.98;;;10.18;;
51883;SDS011;37915;53.254;6.598;2023-03-20T19:15:18;15.13;;;10.55;;
51883;SDS011;37915;53.254;6.598;2023-03-20T19:17:44;14.88;;;10.02;;
51883;SDS011;37915;53.254;6.598;2023-03-20T19:20:56;14.65;;;10.40;;
51883;SDS011;37915;53.254;6.598;2023-03-20T19:23:05;12.65;;;9.27;;
51883;SDS011;37915;53.254;6.598;2023-03-20T19:25:32;14.38;;;9.15;;
51883;SDS011;37915;53.254;6.598;2023-03-20T19:27:58;12.60;;;8.82;;
51883;SDS011;37915;53.254;6.598;2023-03-20T19:30:30;16.02;;;10.63;;
51883;SDS011;37915;53.254;6.598;2023-03-20T19:33:04;14.85;;;10.23;;
51883;SDS011;37915;53.254;6.598;2023-03-20T19:35:31;14.93;;;9.80;;
51883;SDS011;37915;53.254;6.598;2023-03-20T19:37:58;14.38;;;9.93;;
51883;SDS011;37915;53.254;6.598;2023-03-20T19:40:29;13.98;;;9.07;;
51883;SDS011;37915;53.254;6.598;2023-03-20T19:42:57;14.43;;;9.68;;
51883;SDS011;37915;53.254;6.598;2023-03-20T19:45:25;15.90;;;10.10;;
51883;SDS011;37915;53.254;6.598;2023-03-20T19:47:52;16.20;;;10.75;;
51883;SDS011;37915;53.254;6.598;2023-03-20T19:53:11;12.82;;;9.00;;
51883;SDS011;37915;53.254;6.598;2023-03-20T19:55:39;16.10;;;9.93;;
51883;SDS011;37915;53.254;6.598;2023-03-20T19:58:04;16.48;;;10.55;;
51883;SDS011;37915;53.254;6.598;2023-03-20T20:00:31;13.75;;;9.48;;
51883;SDS011;37915;53.254;6.598;2023-03-20T20:02:59;17.73;;;10.68;;
51883;SDS011;37915;53.254;6.598;2023-03-20T20:05:26;15.63;;;9.98;;
51883;SDS011;37915;53.254;6.598;2023-03-20T20:08:01;17.90;;;11.35;;
51883;SDS011;37915;53.254;6.598;2023-03-20T20:10:30;14.63;;;9.48;;
51883;SDS011;37915;53.254;6.598;2023-03-20T20:12:58;15.35;;;10.18;;
51883;SDS011;37915;53.254;6.598;2023-03-20T20:15:24;15.85;;;10.57;;
51883;SDS011;37915;53.254;6.598;2023-03-20T20:17:50;17.80;;;10.63;;
51883;SDS011;37915;53.254;6.598;2023-03-20T20:20:17;15.32;;;10.48;;
51883;SDS011;37915;53.254;6.598;2023-03-20T20:22:45;15.77;;;10.57;;
51883;SDS011;37915;53.254;6.598;2023-03-20T20:25:12;16.25;;;10.73;;
51883;SDS011;37915;53.254;6.598;2023-03-20T20:27:38;18.60;;;10.50;;
51883;SDS011;37915;53.254;6.598;2023-03-20T20:30:05;16.13;;;10.50;;
51883;SDS011;37915;53.254;6.598;2023-03-20T20:32:34;19.67;;;11.35;;
51883;SDS011;37915;53.254;6.598;2023-03-20T20:35:01;20.10;;;12.00;;
51883;SDS011;37915;53.254;6.598;2023-03-20T20:37:28;20.58;;;12.63;;
51883;SDS011;37915;53.254;6.598;2023-03-20T20:39:54;22.88;;;11.77;;
51883;SDS011;37915;53.254;6.598;2023-03-20T20:42:20;19.25;;;10.95;;
51883;SDS011;37915;53.254;6.598;2023-03-20T20:44:46;21.27;;;11.95;;
51883;SDS011;37915;53.254;6.598;2023-03-20T20:47:13;22.13;;;12.20;;
51883;SDS011;37915;53.254;6.598;2023-03-20T20:49:39;23.70;;;13.75;;
51883;SDS011;37915;53.254;6.598;2023-03-20T20:52:05;22.92;;;12.70;;
51883;SDS011;37915;53.254;6.598;2023-03-20T20:54:31;24.88;;;13.10;;
51883;SDS011;37915;53.254;6.598;2023-03-20T20:56:58;23.80;;;13.15;;
51883;SDS011;37915;53.254;6.598;2023-03-20T20:59:24;20.90;;;11.43;;
51883;SDS011;37915;53.254;6.598;2023-03-20T21:01:51;26.00;;;13.40;;
51883;SDS011;37915;53.254;6.598;2023-03-20T21:04:18;25.85;;;13.57;;
51883;SDS011;37915;53.254;6.598;2023-03-20T21:06:44;20.83;;;12.23;;
51883;SDS011;37915;53.254;6.598;2023-03-20T21:09:10;29.05;;;13.82;;
51883;SDS011;37915;53.254;6.598;2023-03-20T21:11:36;26.10;;;14.07;;
51883;SDS011;37915;53.254;6.598;2023-03-20T21:14:02;18.88;;;11.90;;
51883;SDS011;37915;53.254;6.598;2023-03-20T21:16:27;21.48;;;12.07;;
51883;SDS011;37915;53.254;6.598;2023-03-20T21:18:56;24.83;;;12.52;;
51883;SDS011;37915;53.254;6.598;2023-03-20T21:21:22;26.02;;;13.00;;
51883;SDS011;37915;53.254;6.598;2023-03-20T21:23:48;21.58;;;12.38;;
51883;SDS011;37915;53.254;6.598;2023-03-20T21:26:14;19.02;;;11.10;;
51883;SDS011;37915;53.254;6.598;2023-03-20T21:28:40;29.38;;;14.45;;
51883;SDS011;37915;53.254;6.598;2023-03-20T21:31:05;29.88;;;13.88;;
51883;SDS011;37915;53.254;6.598;2023-03-20T21:33:32;23.48;;;12.82;;
51883;SDS011;37915;53.254;6.598;2023-03-20T21:35:59;28.60;;;12.95;;
51883;SDS011;37915;53.254;6.598;2023-03-20T21:38:26;24.20;;;12.50;;
51883;SDS011;37915;53.254;6.598;2023-03-20T21:40:52;31.98;;;14.85;;
51883;SDS011;37915;53.254;6.598;2023-03-20T21:43:18;26.60;;;13.18;;
51883;SDS011;37915;53.254;6.598;2023-03-20T21:45:43;26.65;;;14.10;;
51883;SDS011;37915;53.254;6.598;2023-03-20T21:48:09;27.20;;;13.40;;
51883;SDS011;37915;53.254;6.598;2023-03-20T21:50:35;23.40;;;12.82;;
51883;SDS011;37915;53.254;6.598;2023-03-20T21:53:01;20.27;;;11.32;;
51883;SDS011;37915;53.254;6.598;2023-03-20T21:55:27;28.40;;;13.30;;
51883;SDS011;37915;53.254;6.598;2023-03-20T21:57:55;29.48;;;15.00;;
51883;SDS011;37915;53.254;6.598;2023-03-20T22:00:22;25.48;;;13.60;;
51883;SDS011;37915;53.254;6.598;2023-03-20T22:02:48;26.65;;;13.98;;
51883;SDS011;37915;53.254;6.598;2023-03-20T22:05:13;28.17;;;14.57;;
51883;SDS011;37915;53.254;6.598;2023-03-20T22:07:39;28.35;;;14.60;;
51883;SDS011;37915;53.254;6.598;2023-03-20T22:10:07;25.58;;;14.25;;
51883;SDS011;37915;53.254;6.598;2023-03-20T22:12:33;28.40;;;14.13;;
51883;SDS011;37915;53.254;6.598;2023-03-20T22:14:59;30.98;;;14.65;;
51883;SDS011;37915;53.254;6.598;2023-03-20T22:17:25;29.35;;;14.32;;
51883;SDS011;37915;53.254;6.598;2023-03-20T22:19:51;29.92;;;14.68;;
51883;SDS011;37915;53.254;6.598;2023-03-20T22:22:17;34.42;;;15.75;;
51883;SDS011;37915;53.254;6.598;2023-03-20T22:24:42;27.90;;;14.60;;
51883;SDS011;37915;53.254;6.598;2023-03-20T22:27:08;27.30;;;14.70;;
51883;SDS011;37915;53.254;6.598;2023-03-20T22:29:34;29.13;;;14.38;;
51883;SDS011;37915;53.254;6.598;2023-03-20T22:31:59;28.80;;;13.63;;
51883;SDS011;37915;53.254;6.598;2023-03-20T22:34:25;30.83;;;14.55;;
51883;SDS011;37915;53.254;6.598;2023-03-20T22:36:52;33.75;;;14.88;;
51883;SDS011;37915;53.254;6.598;2023-03-20T22:39:18;28.35;;;14.98;;
51883;SDS011;37915;53.254;6.598;2023-03-20T22:41:45;39.85;;;15.43;;
51883;SDS011;37915;53.254;6.598;2023-03-20T22:44:11;32.55;;;15.55;;
51883;SDS011;37915;53.254;6.598;2023-03-20T22:46:37;32.53;;;14.95;;
51883;SDS011;37915;53.254;6.598;2023-03-20T22:49:03;35.20;;;16.77;;
51883;SDS011;37915;53.254;6.598;2023-03-20T22:51:30;35.95;;;17.30;;
51883;SDS011;37915;53.254;6.598;2023-03-20T22:53:56;33.70;;;16.30;;
51883;SDS011;37915;53.254;6.598;2023-03-20T22:56:22;20.45;;;10.50;;
51883;SDS011;37915;53.254;6.598;2023-03-20T22:58:47;38.08;;;16.63;;
51883;SDS011;37915;53.254;6.598;2023-03-20T23:01:13;37.78;;;16.92;;
51883;SDS011;37915;53.254;6.598;2023-03-20T23:03:39;39.63;;;17.50;;
51883;SDS011;37915;53.254;6.598;2023-03-20T23:06:09;34.47;;;16.00;;
51883;SDS011;37915;53.254;6.598;2023-03-20T23:08:44;27.05;;;13.57;;
51883;SDS011;37915;53.254;6.598;2023-03-20T23:11:10;32.45;;;16.40;;
51883;SDS011;37915;53.254;6.598;2023-03-20T23:13:36;37.47;;;16.42;;
51883;SDS011;37915;53.254;6.598;2023-03-20T23:16:02;33.40;;;17.08;;
51883;SDS011;37915;53.254;6.598;2023-03-20T23:18:27;34.58;;;16.13;;
51883;SDS011;37915;53.254;6.598;2023-03-20T23:20:57;33.30;;;15.70;;
51883;SDS011;37915;53.254;6.598;2023-03-20T23:23:24;36.13;;;15.88;;
51883;SDS011;37915;53.254;6.598;2023-03-20T23:26:04;34.10;;;15.40;;
51883;SDS011;37915;53.254;6.598;2023-03-20T23:28:31;27.17;;;14.40;;
51883;SDS011;37915;53.254;6.598;2023-03-20T23:31:02;32.38;;;15.77;;
51883;SDS011;37915;53.254;6.598;2023-03-20T23:33:28;33.38;;;14.88;;
51883;SDS011;37915;53.254;6.598;2023-03-20T23:35:55;30.20;;;13.75;;
51883;SDS011;37915;53.254;6.598;2023-03-20T23:38:21;30.13;;;14.73;;
51883;SDS011;37915;53.254;6.598;2023-03-20T23:40:48;28.42;;;13.85;;
51883;SDS011;37915;53.254;6.598;2023-03-20T23:43:14;27.83;;;14.05;;
51883;SDS011;37915;53.254;6.598;2023-03-20T23:45:40;25.55;;;13.10;;
51883;SDS011;37915;53.254;6.598;2023-03-20T23:48:06;27.63;;;13.02;;
51883;SDS011;37915;53.254;6.598;2023-03-20T23:50:31;25.98;;;13.57;;
51883;SDS011;37915;53.254;6.598;2023-03-20T23:52:57;22.45;;;11.32;;
51883;SDS011;37915;53.254;6.598;2023-03-20T23:55:23;32.80;;;14.20;;
51883;SDS011;37915;53.254;6.598;2023-03-20T23:57:48;26.63;;;13.25;;
